Sonangol Rangel — C6ZF3 — position and weather

sailwx.info

Track history (hours):
 
Tides and Currents Weather Stations Pressure Air Temp Water Temp Dewpoint Dewpoint Depression Visibility Wind Speed Wind Dir Waves Ship Positions

Sonangol Rangel

Last reported at 2018-Jul-16 23:21 UTC. Time now 2018-Jul-19 01:23 UTC.
Position S 34°00' E 017°17'.

Length 274 m; draft 9.5 m.

Type: Tanker. MMSI: 311069200.

Date/timePositionNaut miles runAvg speedWind from/ knotsBaromVisibWave heightAir tempDewpointWater temp
2018-Jul-16 23:21S 34°00' E 017°17'1913.2
2018-Jul-16 21:56S 34°12' E 017°34'713.2
2018-Jul-16 21:24S 34°16' E 017°41'513.4
2018-Jul-16 21:00S 34°20' E 017°46'713.5
2018-Jul-16 20:29S 34°24' E 017°52'713.4
2018-Jul-16 19:58S 34°28' E 017°59'913.6
2018-Jul-16 19:21S 34°33' E 018°07'1313.9
2018-Jul-16 18:23S 34°41' E 018°20'514.0
2018-Jul-16 18:00S 34°45' E 018°25'  
Track history (hours):
 
Tides and Currents Weather Stations Pressure Air Temp Water Temp Dewpoint Dewpoint Depression Visibility Wind Speed Wind Dir Waves Ship Positions

Sonangol Rangel

Last reported at 2018-Jul-16 23:21 UTC. Time now 2018-Jul-19 01:23 UTC.
Position S 34°00' E 017°17'.

Length 274 m; draft 9.5 m.

Type: Tanker. MMSI: 311069200.

Date/timePositionNaut miles runAvg speedWind from/ knotsBaromVisibWave heightAir tempDewpointWater temp
2018-Jul-16 23:21S 34°00' E 017°17'1913.2
2018-Jul-16 21:56S 34°12' E 017°34'713.2
2018-Jul-16 21:24S 34°16' E 017°41'513.4
2018-Jul-16 21:00S 34°20' E 017°46'713.5
2018-Jul-16 20:29S 34°24' E 017°52'713.4
2018-Jul-16 19:58S 34°28' E 017°59'913.6
2018-Jul-16 19:21S 34°33' E 018°07'1313.9
2018-Jul-16 18:23S 34°41' E 018°20'514.0
2018-Jul-16 18:00S 34°45' E 018°25'  

Dump ship's entire track history